Terminal Aerodrome Forecast
Issued by NWS Bismarck, ND

Home | Current Version | Previous Version | Text Only | Print | Product List | Glossary Off
Versions: 1 2 3 4 5 6 7 8 9 10 11 12 13 14 15 16 17 18

000
FTUS43 KBIS 191007 AAB
TAFBIS
TAF AMD
KBIS 191007Z 1910/2006 11006KT P6SM OVC120
     FM191600 14008KT P6SM SCT120 SCT200
     FM192000 14008KT P6SM FEW300
     FM200300 14004KT P6SM BKN200=

USA.gov is the U.S. government's official web portal to all federal, state and local government web resources and services.